createdAt,value
2019-06-27T00:02:02.211Z,23.05
2019-06-27T00:04:32.509Z,23.00
2019-06-27T00:07:02.913Z,22.96
2019-06-27T00:09:33.237Z,22.90
2019-06-27T00:12:03.483Z,22.82
2019-06-27T00:14:33.829Z,22.80
2019-06-27T00:17:04.508Z,22.76
2019-06-27T00:19:34.839Z,22.73
2019-06-27T00:22:05.312Z,22.68
2019-06-27T00:24:35.543Z,22.63
2019-06-27T00:27:05.814Z,22.53
2019-06-27T00:29:36.201Z,22.42
2019-06-27T00:32:10.824Z,22.35
2019-06-27T00:34:41.105Z,22.32
2019-06-27T00:37:11.349Z,22.32
2019-06-27T00:39:41.874Z,22.29
2019-06-27T00:42:12.193Z,22.25
2019-06-27T00:44:42.792Z,22.23
2019-06-27T00:47:13.069Z,22.18
2019-06-27T00:49:43.362Z,22.12
2019-06-27T00:52:13.614Z,22.09
2019-06-27T00:54:43.836Z,22.04
2019-06-27T00:57:14.972Z,22.00
2019-06-27T00:59:45.467Z,21.96
2019-06-27T01:02:15.691Z,21.92
2019-06-27T01:04:46.212Z,21.87
2019-06-27T01:07:16.462Z,21.87
2019-06-27T01:09:46.707Z,21.83
2019-06-27T01:12:16.975Z,21.87
2019-06-27T01:14:47.326Z,21.84
2019-06-27T01:17:18.048Z,21.82
2019-06-27T01:19:48.269Z,21.79
2019-06-27T01:22:18.539Z,21.73
2019-06-27T01:24:48.826Z,21.66
2019-06-27T01:27:29.619Z,21.65
2019-06-27T01:29:51.049Z,21.67
2019-06-27T01:32:21.310Z,21.69
2019-06-27T01:34:51.639Z,21.65
2019-06-27T01:37:21.872Z,21.61
2019-06-27T01:39:52.181Z,21.57
2019-06-27T01:42:22.454Z,21.58
2019-06-27T01:45:06.747Z,21.56
2019-06-27T01:47:36.960Z,21.55
2019-06-27T01:50:07.438Z,21.45
2019-06-27T01:52:37.734Z,21.36
2019-06-27T01:55:08.025Z,21.38
2019-06-27T01:57:46.739Z,21.34
2019-06-27T02:00:10.586Z,21.29
2019-06-27T02:02:40.938Z,21.22
2019-06-27T02:05:11.334Z,21.21
2019-06-27T02:07:41.612Z,21.09
2019-06-27T02:10:11.838Z,21.07
2019-06-27T02:12:42.470Z,21.02
2019-06-27T02:15:13.603Z,21.05
2019-06-27T02:17:43.978Z,21.10
2019-06-27T02:20:15.481Z,21.10
2019-06-27T02:22:45.855Z,21.08
2019-06-27T02:25:16.465Z,21.01
2019-06-27T02:28:02.606Z,20.99
2019-06-27T02:30:26.086Z,20.96
2019-06-27T02:32:56.318Z,20.84
2019-06-27T02:35:26.579Z,20.84
2019-06-27T02:37:58.056Z,20.79
2019-06-27T02:40:38.099Z,20.79
2019-06-27T02:43:08.369Z,20.78
2019-06-27T02:45:38.606Z,20.71
2019-06-27T02:48:08.829Z,20.65
2019-06-27T02:50:39.160Z,20.59
2019-06-27T02:53:28.978Z,20.53
2019-06-27T02:55:59.319Z,20.55
2019-06-27T02:58:32.275Z,20.36
2019-06-27T03:01:01.500Z,20.34
2019-06-27T03:03:31.815Z,20.35
2019-06-27T03:06:02.024Z,20.40
2019-06-27T03:08:34.776Z,20.43
2019-06-27T03:11:05.125Z,20.46
2019-06-27T03:13:35.369Z,20.41
2019-06-27T03:16:05.621Z,20.43
2019-06-27T03:18:35.940Z,20.44
2019-06-27T03:21:06.444Z,20.39
2019-06-27T03:23:36.723Z,20.45
2019-06-27T03:26:07.012Z,20.53
2019-06-27T03:28:50.973Z,20.54
2019-06-27T03:31:09.117Z,20.57
2019-06-27T03:33:48.940Z,20.60
2019-06-27T03:36:19.229Z,20.61
2019-06-27T03:38:49.556Z,20.54
2019-06-27T03:41:19.849Z,20.44
2019-06-27T03:43:50.126Z,20.39
2019-06-27T03:46:20.399Z,20.38
2019-06-27T03:48:50.957Z,20.37
2019-06-27T03:51:21.275Z,20.38
2019-06-27T03:53:51.660Z,20.34
2019-06-27T03:56:21.989Z,20.31
2019-06-27T03:59:10.777Z,20.26
2019-06-27T04:01:24.223Z,20.22
2019-06-27T04:03:55.871Z,20.11
2019-06-27T04:06:26.158Z,20.15
2019-06-27T04:08:56.499Z,20.12
2019-06-27T04:11:26.761Z,20.08
2019-06-27T04:13:57.014Z,20.04
2019-06-27T04:16:31.570Z,20.09
2019-06-27T04:19:01.847Z,19.94
2019-06-27T04:21:32.108Z,19.83
2019-06-27T04:24:02.433Z,19.80
2019-06-27T04:26:32.769Z,19.86
2019-06-27T04:29:03.141Z,19.81
2019-06-27T04:31:33.707Z,19.82
2019-06-27T04:34:03.912Z,19.85
2019-06-27T04:36:34.217Z,19.96
2019-06-27T04:39:05.048Z,19.98
2019-06-27T04:41:35.326Z,19.85
2019-06-27T04:44:05.576Z,19.93
2019-06-27T04:46:39.541Z,19.99
2019-06-27T04:49:13.365Z,20.01
2019-06-27T04:51:41.785Z,20.06
2019-06-27T04:54:12.050Z,20.13
2019-06-27T04:56:42.327Z,20.04
2019-06-27T04:59:12.928Z,20.13
2019-06-27T05:01:43.169Z,20.15
2019-06-27T05:04:13.465Z,20.12
2019-06-27T05:06:43.741Z,20.09
2019-06-27T05:09:14.017Z,20.25
2019-06-27T05:11:44.285Z,20.20
2019-06-27T05:14:14.893Z,20.18
2019-06-27T05:16:45.351Z,20.27
2019-06-27T05:19:15.633Z,20.30
2019-06-27T05:21:45.952Z,20.44
2019-06-27T05:24:16.244Z,20.53
2019-06-27T05:26:47.885Z,20.48
2019-06-27T05:29:18.189Z,20.58
2019-06-27T05:31:48.467Z,20.72
2019-06-27T05:34:18.663Z,20.84
2019-06-27T05:36:48.935Z,20.81
2019-06-27T05:39:19.285Z,20.70
2019-06-27T05:41:52.081Z,20.69
2019-06-27T05:44:22.382Z,20.63
2019-06-27T05:46:52.584Z,20.74
2019-06-27T05:49:22.833Z,20.62
2019-06-27T05:51:53.091Z,20.67
2019-06-27T05:54:23.645Z,20.65
2019-06-27T05:56:53.847Z,20.64
2019-06-27T05:59:24.121Z,20.86
2019-06-27T06:01:55.785Z,20.85
2019-06-27T06:04:25.977Z,20.90
2019-06-27T06:06:56.335Z,21.07
2019-06-27T06:09:27.512Z,21.20
2019-06-27T06:11:58.773Z,21.17
2019-06-27T06:14:29.521Z,21.34
2019-06-27T06:16:59.868Z,21.46
2019-06-27T06:19:30.110Z,21.65
2019-06-27T06:22:00.390Z,21.56
2019-06-27T06:24:33.330Z,21.60
2019-06-27T06:27:03.654Z,21.63
2019-06-27T06:29:34.493Z,21.83
2019-06-27T06:32:04.809Z,21.93
2019-06-27T06:34:35.120Z,21.66
2019-06-27T06:37:08.053Z,21.54
2019-06-27T06:39:37.269Z,21.97
2019-06-27T06:42:07.797Z,22.17
2019-06-27T06:44:38.046Z,22.15
2019-06-27T06:47:08.277Z,22.26
2019-06-27T06:49:38.547Z,22.41
2019-06-27T06:52:08.804Z,22.39
2019-06-27T06:54:39.095Z,22.35
2019-06-27T06:57:10.642Z,22.47
2019-06-27T06:59:40.954Z,22.71
2019-06-27T07:02:11.210Z,22.69
2019-06-27T07:04:41.513Z,22.90
2019-06-27T07:07:13.212Z,23.06
2019-06-27T07:09:49.699Z,22.84
2019-06-27T07:12:19.915Z,23.01
2019-06-27T07:14:50.262Z,22.75
2019-06-27T07:17:20.655Z,22.75
2019-06-27T07:19:50.840Z,22.96
2019-06-27T07:22:21.602Z,22.91
2019-06-27T07:24:51.927Z,22.82
2019-06-27T07:27:22.205Z,23.12
2019-06-27T07:29:52.437Z,22.95
2019-06-27T07:32:22.644Z,22.77
2019-06-27T07:34:52.881Z,22.90
2019-06-27T07:37:23.402Z,22.62
2019-06-27T07:39:53.696Z,22.44
2019-06-27T07:42:23.964Z,22.45
2019-06-27T07:44:54.277Z,22.90
2019-06-27T07:47:24.496Z,23.02
2019-06-27T07:49:55.169Z,23.20
2019-06-27T07:52:25.820Z,23.47
2019-06-27T07:54:56.046Z,23.58
2019-06-27T07:57:26.335Z,23.41
2019-06-27T07:59:56.539Z,23.55
2019-06-27T08:02:26.917Z,23.71
2019-06-27T08:04:57.491Z,23.84
2019-06-27T08:07:27.773Z,23.72
2019-06-27T08:09:58.058Z,23.91
2019-06-27T08:12:29.305Z,24.06
2019-06-27T08:14:59.574Z,24.12
2019-06-27T08:17:29.893Z,24.08
2019-06-27T08:20:01.453Z,23.93
2019-06-27T08:22:31.810Z,24.01
2019-06-27T08:25:02.101Z,24.35
2019-06-27T08:27:32.307Z,24.57
2019-06-27T08:30:02.596Z,24.62
2019-06-27T08:32:50.316Z,24.80
2019-06-27T08:35:20.527Z,24.69
2019-06-27T08:37:50.826Z,24.75
2019-06-27T08:40:21.109Z,25.07
2019-06-27T08:42:52.449Z,24.34
2019-06-27T08:45:27.495Z,24.63
2019-06-27T08:47:57.708Z,24.87
2019-06-27T08:50:28.031Z,25.01
2019-06-27T08:53:01.260Z,25.27
2019-06-27T08:55:30.452Z,25.51
2019-06-27T08:58:00.791Z,25.87
2019-06-27T09:00:31.351Z,26.04
2019-06-27T09:03:01.745Z,25.94
2019-06-27T09:05:32.085Z,25.78
2019-06-27T09:08:05.432Z,25.79
2019-06-27T09:10:35.781Z,25.84
2019-06-27T09:13:06.568Z,26.45
2019-06-27T09:15:36.895Z,26.62
2019-06-27T09:18:07.231Z,26.89
2019-06-27T09:20:37.516Z,27.08
2019-06-27T09:23:07.841Z,27.18
2019-06-27T09:25:38.273Z,27.24
2019-06-27T09:28:08.686Z,27.07
2019-06-27T09:30:38.957Z,27.52
2019-06-27T09:33:09.249Z,27.62
2019-06-27T09:35:39.499Z,27.87
2019-06-27T09:38:09.790Z,27.97
2019-06-27T09:40:41.241Z,28.23
2019-06-27T09:43:20.037Z,28.35
2019-06-27T09:45:50.323Z,28.51
2019-06-27T09:48:20.574Z,28.84
2019-06-27T09:50:50.846Z,28.74
2019-06-27T09:53:21.083Z,29.13
2019-06-27T09:55:56.659Z,29.17
2019-06-27T09:58:26.935Z,29.26
2019-06-27T10:00:57.165Z,29.58
2019-06-27T10:03:27.504Z,29.72
2019-06-27T10:05:57.745Z,29.93
2019-06-27T10:08:29.309Z,29.96
2019-06-27T10:10:59.686Z,30.32
2019-06-27T10:13:29.891Z,30.59
2019-06-27T10:16:01.658Z,30.42
2019-06-27T10:18:31.924Z,30.47
2019-06-27T10:21:02.162Z,30.95
2019-06-27T10:23:32.451Z,30.67
2019-06-27T10:26:02.747Z,30.63
2019-06-27T10:28:32.984Z,30.98
2019-06-27T10:31:03.205Z,31.48
2019-06-27T10:33:33.521Z,31.73
2019-06-27T10:36:03.828Z,31.98
2019-06-27T10:38:34.049Z,32.18
2019-06-27T10:41:06.767Z,32.69
2019-06-27T10:43:37.036Z,32.13
2019-06-27T10:46:07.283Z,32.13
2019-06-27T10:48:37.555Z,32.39
2019-06-27T10:51:07.794Z,32.35
2019-06-27T10:53:38.057Z,32.58
2019-06-27T10:56:13.621Z,32.56
2019-06-27T10:58:43.876Z,32.69
2019-06-27T11:01:14.126Z,32.60
2019-06-27T11:03:44.502Z,32.52
2019-06-27T11:06:14.840Z,32.48
2019-06-27T11:08:51.012Z,32.90
2019-06-27T11:11:21.248Z,32.99
2019-06-27T11:13:58.770Z,32.76
2019-06-27T11:16:23.563Z,32.62
2019-06-27T11:18:53.818Z,32.78
2019-06-27T11:21:25.526Z,32.75
2019-06-27T11:23:55.794Z,32.40
2019-06-27T11:26:26.158Z,32.07
2019-06-27T11:28:56.641Z,32.53
2019-06-27T11:31:26.902Z,32.27
2019-06-27T11:33:57.250Z,31.85
2019-06-27T11:36:29.380Z,31.67
2019-06-27T11:38:59.638Z,32.18
2019-06-27T11:41:29.899Z,31.93
2019-06-27T11:44:00.207Z,31.68
2019-06-27T11:46:30.595Z,31.99
2019-06-27T11:49:01.051Z,31.64
2019-06-27T11:51:34.919Z,31.47
2019-06-27T11:54:05.110Z,31.19
2019-06-27T11:56:35.376Z,30.75
2019-06-27T11:59:05.688Z,31.20
2019-06-27T12:01:35.952Z,31.32
2019-06-27T12:04:06.559Z,30.94
2019-06-27T12:06:36.764Z,30.62
2019-06-27T12:09:07.628Z,30.32
2019-06-27T12:11:37.866Z,30.57
2019-06-27T12:14:08.217Z,31.12
2019-06-27T12:16:42.270Z,30.96
2019-06-27T12:19:12.508Z,30.73
2019-06-27T12:21:42.812Z,30.13
2019-06-27T12:24:14.224Z,30.31
2019-06-27T12:26:44.468Z,30.70
2019-06-27T12:29:26.525Z,30.81
2019-06-27T12:31:56.758Z,30.43
2019-06-27T12:34:26.999Z,30.54
2019-06-27T12:36:57.879Z,30.31
2019-06-27T12:39:28.410Z,29.82
2019-06-27T12:41:58.701Z,29.80
2019-06-27T12:44:29.202Z,29.59
2019-06-27T12:47:00.543Z,29.46
2019-06-27T12:49:44.865Z,28.94
2019-06-27T12:52:02.809Z,28.84
2019-06-27T12:54:33.059Z,28.81
2019-06-27T12:57:03.276Z,28.69
2019-06-27T12:59:33.855Z,28.24
2019-06-27T13:02:04.215Z,28.07
2019-06-27T13:04:34.441Z,28.10
2019-06-27T13:07:04.780Z,28.28
2019-06-27T13:09:34.953Z,28.39
2019-06-27T13:12:05.263Z,28.53
2019-06-27T13:14:37.860Z,28.41
2019-06-27T13:17:08.087Z,28.24
2019-06-27T13:19:39.806Z,28.23
2019-06-27T13:22:10.204Z,28.05
2019-06-27T13:24:40.504Z,27.75
2019-06-27T13:27:11.140Z,27.74
2019-06-27T13:29:41.357Z,27.90
2019-06-27T13:32:11.660Z,27.83
2019-06-27T13:34:41.948Z,27.75
2019-06-27T13:37:12.389Z,28.16
2019-06-27T13:39:42.644Z,28.00
2019-06-27T13:42:15.214Z,28.24
2019-06-27T13:44:45.473Z,28.32
2019-06-27T13:47:15.722Z,28.31
2019-06-27T13:49:45.944Z,28.31
2019-06-27T13:52:16.162Z,28.58
2019-06-27T13:54:51.154Z,28.52
2019-06-27T13:57:21.408Z,28.60
2019-06-27T13:59:51.693Z,28.91
2019-06-27T14:02:22.035Z,28.98
2019-06-27T14:04:57.072Z,29.10
2019-06-27T14:07:24.320Z,29.21
2019-06-27T14:09:57.447Z,29.06
2019-06-27T14:12:27.918Z,29.48
2019-06-27T14:15:00.004Z,29.35
2019-06-27T14:17:30.809Z,29.36
2019-06-27T14:20:01.061Z,29.74
2019-06-27T14:22:38.818Z,29.86
2019-06-27T14:25:11.224Z,30.06
2019-06-27T14:27:41.506Z,30.22
2019-06-27T14:30:11.832Z,30.57
2019-06-27T14:32:42.125Z,30.54
2019-06-27T14:35:16.302Z,30.68
2019-06-27T14:37:47.825Z,30.53
2019-06-27T14:40:20.075Z,30.75
2019-06-27T14:42:53.962Z,30.91
2019-06-27T14:45:24.233Z,30.82
2019-06-27T14:47:54.556Z,30.66
2019-06-27T14:50:26.279Z,30.64
2019-06-27T14:52:56.605Z,30.87
2019-06-27T14:55:26.856Z,30.90
2019-06-27T14:57:57.484Z,31.11
2019-06-27T15:00:29.146Z,30.72
2019-06-27T15:03:01.686Z,30.91
2019-06-27T15:05:33.593Z,31.08
2019-06-27T15:08:06.199Z,31.23
2019-06-27T15:10:41.749Z,31.25
2019-06-27T15:13:12.164Z,31.17
2019-06-27T15:15:42.597Z,31.24
2019-06-27T15:18:16.370Z,31.25
2019-06-27T15:20:47.059Z,30.85
2019-06-27T15:23:18.957Z,31.03
2019-06-27T15:25:49.334Z,30.96
2019-06-27T15:28:19.713Z,31.02
2019-06-27T15:30:50.014Z,30.96
2019-06-27T15:33:20.280Z,31.18
2019-06-27T15:35:52.297Z,31.34
2019-06-27T15:38:27.046Z,31.62
2019-06-27T15:40:57.349Z,31.46
2019-06-27T15:43:27.542Z,31.63
2019-06-27T15:46:00.958Z,31.31
2019-06-27T15:48:31.299Z,30.98
2019-06-27T15:51:01.533Z,31.11
2019-06-27T15:53:33.346Z,30.90
2019-06-27T15:56:03.536Z,30.88
2019-06-27T15:58:33.764Z,30.83
2019-06-27T16:01:05.734Z,30.51
2019-06-27T16:03:35.966Z,30.64
2019-06-27T16:06:11.073Z,30.71
2019-06-27T16:08:40.408Z,30.84
2019-06-27T16:11:10.777Z,30.88
2019-06-27T16:14:13.550Z,30.87
2019-06-27T16:20:14.181Z,30.38
2019-06-27T16:22:44.449Z,30.58
2019-06-27T16:25:26.919Z,30.43
2019-06-27T16:28:26.923Z,30.20
2019-06-27T16:31:01.339Z,30.52
2019-06-27T16:33:31.647Z,30.45
2019-06-27T16:36:01.941Z,30.50
2019-06-27T16:38:32.187Z,30.53
2019-06-27T16:41:05.274Z,30.33
2019-06-27T16:43:37.153Z,30.20
2019-06-27T16:46:09.508Z,30.10
2019-06-27T16:48:41.923Z,29.78
2019-06-27T16:51:14.172Z,29.87
2019-06-27T16:53:47.214Z,30.04
2019-06-27T16:56:20.149Z,29.82
2019-06-27T16:58:51.324Z,29.43
2019-06-27T17:01:33.462Z,29.43
2019-06-27T17:04:03.711Z,29.40
2019-06-27T17:06:41.931Z,29.21
2019-06-27T17:09:07.114Z,29.25
2019-06-27T17:11:39.406Z,29.09
2019-06-27T17:14:09.659Z,28.99
2019-06-27T17:16:40.371Z,28.79
2019-06-27T17:19:10.580Z,28.81
2019-06-27T17:21:43.570Z,28.27
2019-06-27T17:24:13.911Z,28.18
2019-06-27T17:26:46.449Z,28.22
2019-06-27T17:29:20.394Z,28.03
2019-06-27T17:31:54.377Z,27.60
2019-06-27T17:34:24.670Z,27.39
2019-06-27T17:36:58.379Z,27.40
2019-06-27T17:39:34.122Z,27.43
2019-06-27T17:42:04.529Z,27.06
2019-06-27T17:44:34.744Z,26.86
2019-06-27T17:47:05.080Z,26.81
2019-06-27T17:49:58.999Z,26.47
2019-06-27T17:52:31.405Z,26.29
2019-06-27T17:55:01.733Z,26.36
2019-06-27T17:57:32.046Z,26.12
2019-06-27T18:00:02.411Z,26.02
2019-06-27T18:02:34.392Z,25.67
2019-06-27T18:05:04.799Z,25.46
2019-06-27T18:07:36.155Z,25.19
2019-06-27T18:10:06.469Z,24.89
2019-06-27T18:12:36.745Z,24.69
2019-06-27T18:15:10.711Z,24.38
2019-06-27T18:17:41.006Z,24.27
2019-06-27T18:20:11.237Z,24.16
2019-06-27T18:22:42.811Z,24.04
2019-06-27T18:25:13.110Z,23.89
2019-06-27T18:27:45.984Z,23.64
2019-06-27T18:30:20.799Z,23.57
2019-06-27T18:32:51.156Z,23.44
2019-06-27T18:35:24.247Z,23.38
2019-06-27T18:37:55.659Z,23.33
2019-06-27T18:40:26.021Z,23.21
2019-06-27T18:43:02.840Z,22.97
2019-06-27T18:45:33.184Z,22.88
2019-06-27T18:48:04.691Z,22.82
2019-06-27T18:50:36.593Z,22.72
2019-06-27T18:53:06.817Z,22.53
2019-06-27T18:55:37.072Z,22.39
2019-06-27T18:58:19.781Z,22.39
2019-06-27T19:03:31.695Z,22.13
2019-06-27T19:06:01.964Z,22.06
2019-06-27T19:08:32.269Z,22.04
2019-06-27T19:11:06.952Z,22.04
2019-06-27T19:13:37.313Z,21.95
2019-06-27T19:16:07.641Z,21.83
2019-06-27T19:18:53.740Z,21.78
2019-06-27T19:21:51.486Z,21.71
2019-06-27T19:24:49.619Z,21.50
2019-06-27T19:27:20.210Z,21.34
2019-06-27T19:29:50.807Z,21.34
2019-06-27T19:32:21.053Z,21.34
2019-06-27T19:34:51.382Z,21.24
2019-06-27T19:37:21.718Z,21.23
2019-06-27T19:39:52.236Z,21.16
2019-06-27T19:42:22.507Z,21.02
2019-06-27T19:44:52.831Z,20.93
2019-06-27T19:47:23.076Z,20.86
2019-06-27T19:49:53.363Z,20.76
2019-06-27T19:52:29.783Z,20.70
2019-06-27T19:55:00.090Z,20.67
2019-06-27T19:57:30.552Z,20.60
2019-06-27T20:00:00.883Z,20.55
2019-06-27T20:02:32.914Z,20.53
2019-06-27T20:05:03.650Z,20.43
2019-06-27T20:07:34.008Z,20.26
2019-06-27T20:10:05.868Z,20.13
2019-06-27T20:12:36.110Z,20.07
2019-06-27T20:15:06.361Z,20.00
2019-06-27T20:17:36.673Z,20.01
2019-06-27T20:20:22.380Z,20.01
2019-06-27T20:22:52.695Z,20.03
2019-06-27T20:25:22.940Z,20.00
2019-06-27T20:27:53.233Z,19.90
2019-06-27T20:30:23.439Z,19.89
2019-06-27T20:32:55.033Z,19.81
2019-06-27T20:35:25.355Z,19.72
2019-06-27T20:37:55.718Z,19.62
2019-06-27T20:40:26.023Z,19.62
2019-06-27T20:42:56.254Z,19.63
2019-06-27T20:45:31.145Z,19.57
2019-06-27T20:48:01.534Z,19.51
2019-06-27T20:50:31.868Z,19.47
2019-06-27T20:53:02.184Z,19.41
2019-06-27T20:55:32.533Z,19.36
2019-06-27T20:58:04.178Z,19.34
2019-06-27T21:00:34.455Z,19.24
2019-06-27T21:03:04.687Z,19.22
2019-06-27T21:05:34.949Z,19.20
2019-06-27T21:08:05.224Z,19.17
2019-06-27T21:10:35.485Z,19.13
2019-06-27T21:13:10.188Z,19.01
2019-06-27T21:15:40.562Z,19.00
2019-06-27T21:18:10.765Z,18.91
2019-06-27T21:20:41.034Z,18.86
2019-06-27T21:23:11.256Z,18.76
2019-06-27T21:25:41.870Z,18.76
2019-06-27T21:28:12.070Z,18.78
2019-06-27T21:30:42.347Z,18.74
2019-06-27T21:33:12.536Z,18.59
2019-06-27T21:35:43.160Z,18.59
2019-06-27T21:38:13.408Z,18.53
2019-06-27T21:40:43.717Z,18.41
2019-06-27T21:43:13.989Z,18.36
2019-06-27T21:45:44.603Z,18.27
2019-06-27T21:48:14.919Z,18.24
2019-06-27T21:50:45.154Z,18.16
2019-06-27T21:53:15.395Z,17.94
2019-06-27T21:55:45.581Z,17.88
2019-06-27T21:58:20.923Z,17.91
2019-06-27T22:00:51.385Z,17.94
2019-06-27T22:03:21.986Z,18.00
2019-06-27T22:05:52.194Z,18.00
2019-06-27T22:08:22.538Z,18.01
2019-06-27T22:10:52.822Z,17.96
2019-06-27T22:13:23.536Z,17.86
2019-06-27T22:15:53.816Z,17.64
2019-06-27T22:18:24.948Z,17.56
2019-06-27T22:20:55.222Z,17.53
2019-06-27T22:23:25.436Z,17.47
2019-06-27T22:26:00.005Z,17.20
2019-06-27T22:28:30.237Z,17.27
2019-06-27T22:31:00.531Z,17.26
2019-06-27T22:33:30.845Z,17.26
2019-06-27T22:36:01.051Z,17.28
2019-06-27T22:38:49.078Z,17.21
2019-06-27T22:41:37.118Z,17.19
2019-06-27T22:44:25.064Z,17.09
2019-06-27T22:47:12.782Z,17.13
2019-06-27T22:49:42.517Z,16.96
2019-06-27T22:52:44.785Z,16.99
2019-06-27T22:55:18.618Z,17.01
2019-06-27T22:57:48.963Z,16.90
2019-06-27T23:00:19.244Z,16.81
2019-06-27T23:02:49.544Z,16.81
2019-06-27T23:05:20.352Z,16.73
2019-06-27T23:07:50.623Z,16.76
2019-06-27T23:10:20.905Z,16.65
2019-06-27T23:12:51.164Z,16.70
2019-06-27T23:15:21.383Z,16.65
2019-06-27T23:17:51.785Z,16.54
2019-06-27T23:20:22.295Z,16.59
2019-06-27T23:22:52.585Z,16.64
2019-06-27T23:25:22.787Z,16.49
2019-06-27T23:27:53.129Z,16.46
2019-06-27T23:30:23.329Z,16.51
2019-06-27T23:33:00.387Z,16.49
2019-06-27T23:35:30.757Z,16.46
2019-06-27T23:38:01.149Z,16.45
2019-06-27T23:40:33.181Z,16.42
2019-06-27T23:43:03.482Z,16.37
2019-06-27T23:45:34.024Z,16.30
2019-06-27T23:48:04.265Z,16.20
2019-06-27T23:50:34.462Z,16.17
2019-06-27T23:53:04.730Z,16.13
2019-06-27T23:55:34.961Z,16.12
2019-06-27T23:58:05.259Z,16.03
